createdAt,value
2022-10-20T00:00:40.340Z,4.05
2022-10-20T00:03:09.518Z,4.63
2022-10-20T00:05:37.293Z,4.22
2022-10-20T00:08:08.511Z,4.82
2022-10-20T00:10:38.471Z,4.38
2022-10-20T00:13:12.569Z,4.50
2022-10-20T00:15:41.062Z,4.30
2022-10-20T00:18:09.983Z,4.22
2022-10-20T00:20:46.033Z,4.60
2022-10-20T00:23:19.087Z,4.65
2022-10-20T00:25:48.093Z,3.80
2022-10-20T00:28:19.293Z,4.45
2022-10-20T00:31:03.217Z,4.40
2022-10-20T00:33:31.405Z,4.75
2022-10-20T00:36:04.326Z,4.57
2022-10-20T00:38:37.804Z,4.28
2022-10-20T00:41:33.062Z,4.55
2022-10-20T00:44:04.468Z,5.28
2022-10-20T00:46:48.170Z,4.47
2022-10-20T00:49:43.971Z,4.47
2022-10-20T00:58:02.315Z,4.90
2022-10-20T01:00:43.375Z,4.03
2022-10-20T01:03:15.084Z,4.40
2022-10-20T01:05:56.077Z,4.68
2022-10-20T01:08:47.760Z,4.43
2022-10-20T01:14:04.273Z,4.43
2022-10-20T01:16:50.047Z,5.10
2022-10-20T01:19:18.783Z,4.53
2022-10-20T01:22:09.669Z,5.32
2022-10-20T01:24:42.671Z,4.88
2022-10-20T01:27:29.678Z,4.55
2022-10-20T01:30:28.416Z,4.15
2022-10-20T01:33:15.865Z,4.97
2022-10-20T01:36:13.811Z,4.70
2022-10-20T01:39:05.314Z,4.50
2022-10-20T01:42:03.955Z,4.80
2022-10-20T01:44:39.405Z,4.93
2022-10-20T01:47:08.132Z,4.68
2022-10-20T01:49:38.813Z,5.20
2022-10-20T01:52:10.711Z,4.55
2022-10-20T01:54:43.976Z,4.68
2022-10-20T01:57:20.929Z,4.10
2022-10-20T02:00:19.374Z,4.43
2022-10-20T02:02:52.315Z,4.43
2022-10-20T02:05:40.279Z,5.20
2022-10-20T02:08:31.973Z,5.00
2022-10-20T02:13:41.888Z,4.70
2022-10-20T02:16:14.760Z,4.93
2022-10-20T02:18:54.247Z,5.20
2022-10-20T02:21:29.587Z,6.68
2022-10-20T02:24:17.984Z,5.43
2022-10-20T02:27:02.226Z,5.97
2022-10-20T02:29:33.873Z,4.97
2022-10-20T02:32:02.142Z,5.97
2022-10-20T02:34:32.827Z,5.18
2022-10-20T02:37:01.776Z,6.35
2022-10-20T02:39:45.764Z,5.90
2022-10-20T02:42:45.666Z,6.28
2022-10-20T02:45:18.834Z,8.57
2022-10-20T02:48:04.198Z,6.00
2022-10-20T02:50:56.073Z,6.47
2022-10-20T02:53:54.147Z,5.90
2022-10-20T02:56:31.343Z,6.40
2022-10-20T02:59:02.391Z,6.35
2022-10-20T03:01:31.965Z,6.30
2022-10-20T03:04:15.750Z,6.85
2022-10-20T03:06:44.025Z,6.13
2022-10-20T03:09:20.207Z,6.40
2022-10-20T03:12:00.831Z,6.47
2022-10-20T03:14:40.086Z,6.95
2022-10-20T03:17:07.935Z,6.20
2022-10-20T03:19:37.141Z,6.75
2022-10-20T03:22:11.596Z,6.95
2022-10-20T03:24:46.178Z,6.65
2022-10-20T03:27:21.608Z,5.88
2022-10-20T03:30:01.919Z,5.97
2022-10-20T03:32:32.131Z,6.40
2022-10-20T03:35:21.979Z,6.78
2022-10-20T03:37:55.095Z,6.60
2022-10-20T03:40:27.370Z,7.20
2022-10-20T03:43:01.936Z,6.25
2022-10-20T03:45:31.083Z,6.82
2022-10-20T03:48:29.533Z,6.30
2022-10-20T03:51:11.715Z,6.45
2022-10-20T03:53:47.457Z,6.50
2022-10-20T03:56:19.887Z,6.97
2022-10-20T03:58:50.423Z,6.40
2022-10-20T04:01:31.685Z,6.90
2022-10-20T04:04:00.007Z,6.97
2022-10-20T04:06:48.615Z,6.97
2022-10-20T04:09:34.484Z,6.93
2022-10-20T04:12:02.653Z,6.43
2022-10-20T04:14:30.671Z,6.90
2022-10-20T04:16:59.143Z,7.32
2022-10-20T04:19:31.342Z,6.97
2022-10-20T04:22:01.916Z,7.18
2022-10-20T04:24:38.277Z,7.17
2022-10-20T04:27:17.681Z,6.82
2022-10-20T04:29:45.607Z,8.20
2022-10-20T04:32:20.369Z,7.50
2022-10-20T04:34:50.763Z,8.88
2022-10-20T04:37:33.775Z,8.10
2022-10-20T04:40:06.778Z,7.60
2022-10-20T04:43:10.942Z,6.97
2022-10-20T04:45:39.929Z,7.40
2022-10-20T04:48:18.118Z,8.13
2022-10-20T04:50:46.063Z,7.82
2022-10-20T04:53:15.226Z,7.43
2022-10-20T04:55:43.619Z,7.63
2022-10-20T04:58:42.499Z,7.35
2022-10-20T05:01:16.484Z,7.00
2022-10-20T05:04:14.980Z,7.15
2022-10-20T05:06:46.595Z,6.85
2022-10-20T05:09:14.464Z,6.82
2022-10-20T05:11:49.097Z,6.75
2022-10-20T05:14:42.019Z,6.43
2022-10-20T05:17:11.266Z,7.88
2022-10-20T05:19:41.339Z,6.75
2022-10-20T05:22:14.439Z,7.40
2022-10-20T05:24:50.332Z,7.75
2022-10-20T05:27:20.891Z,6.60
2022-10-20T05:29:57.371Z,6.97
2022-10-20T05:35:14.028Z,6.80
2022-10-20T05:37:54.138Z,7.18
2022-10-20T05:40:23.552Z,7.95
2022-10-20T05:43:06.166Z,6.95
2022-10-20T05:45:44.420Z,7.38
2022-10-20T05:48:29.017Z,7.32
2022-10-20T05:51:19.950Z,7.00
2022-10-20T05:53:53.656Z,6.25
2022-10-20T05:56:23.795Z,6.13
2022-10-20T05:58:59.190Z,7.75
2022-10-20T06:01:49.356Z,6.55
2022-10-20T06:04:31.598Z,6.32
2022-10-20T06:07:02.426Z,7.75
2022-10-20T06:09:31.459Z,5.75
2022-10-20T06:12:11.664Z,6.25
2022-10-20T06:14:39.489Z,6.15
2022-10-20T06:17:07.478Z,6.30
2022-10-20T06:19:48.872Z,6.20
2022-10-20T06:22:39.949Z,6.57
2022-10-20T06:25:08.274Z,5.45
2022-10-20T06:27:51.545Z,6.43
2022-10-20T06:30:22.317Z,5.78
2022-10-20T06:32:56.803Z,6.00
2022-10-20T06:35:35.665Z,5.93
2022-10-20T06:38:12.803Z,5.45
2022-10-20T06:40:40.917Z,5.70
2022-10-20T06:43:09.675Z,5.45
2022-10-20T06:45:45.495Z,5.28
2022-10-20T06:48:28.091Z,5.35
2022-10-20T06:51:08.887Z,5.10
2022-10-20T06:53:45.918Z,5.95
2022-10-20T06:56:44.263Z,5.55
2022-10-20T06:59:13.890Z,5.63
2022-10-20T07:02:06.281Z,5.82
2022-10-20T07:05:09.607Z,5.50
2022-10-20T07:07:40.743Z,5.90
2022-10-20T07:10:33.689Z,6.07
2022-10-20T07:25:17.072Z,6.45
2022-10-20T07:31:14.743Z,5.70
2022-10-20T07:34:26.847Z,6.28
2022-10-20T07:36:59.711Z,6.15
2022-10-20T07:39:29.966Z,6.20
2022-10-20T07:41:59.327Z,5.82
2022-10-20T07:44:28.555Z,5.82
2022-10-20T07:47:04.924Z,6.35
2022-10-20T07:49:45.900Z,5.90
2022-10-20T07:52:43.975Z,6.53
2022-10-20T07:55:36.906Z,5.90
2022-10-20T07:58:11.869Z,6.60
2022-10-20T08:00:44.577Z,5.68
2022-10-20T08:03:14.363Z,5.80
2022-10-20T08:05:56.718Z,6.63
2022-10-20T08:08:52.244Z,6.00
2022-10-20T08:11:27.278Z,5.88
2022-10-20T08:14:36.176Z,6.30
2022-10-20T08:17:14.574Z,5.53
2022-10-20T08:22:43.434Z,6.40
2022-10-20T08:25:15.888Z,6.35
2022-10-20T08:28:07.658Z,6.13
2022-10-20T08:33:05.875Z,6.68
2022-10-20T08:35:41.892Z,6.35
2022-10-20T08:38:35.717Z,5.85
2022-10-20T08:41:21.383Z,6.47
2022-10-20T08:44:16.727Z,7.28
2022-10-20T08:46:53.369Z,6.68
2022-10-20T08:49:35.553Z,6.95
2022-10-20T08:52:12.711Z,6.95
2022-10-20T08:54:45.869Z,7.63
2022-10-20T08:57:27.991Z,6.68
2022-10-20T09:00:00.548Z,7.78
2022-10-20T09:02:38.467Z,6.70
2022-10-20T09:05:42.124Z,7.50
2022-10-20T09:08:46.981Z,6.55
2022-10-20T09:11:26.471Z,7.07
2022-10-20T09:14:01.421Z,6.88
2022-10-20T09:16:59.390Z,6.30
2022-10-20T09:19:38.702Z,6.32
2022-10-20T09:22:07.496Z,7.07
2022-10-20T09:24:48.437Z,6.53
2022-10-20T09:27:21.469Z,16.48
2022-10-20T09:29:56.527Z,6.70
2022-10-20T09:32:52.074Z,6.55
2022-10-20T09:35:25.013Z,6.85
2022-10-20T09:38:01.737Z,6.22
2022-10-20T09:40:35.799Z,7.32
2022-10-20T09:43:25.946Z,6.90
2022-10-20T09:46:03.037Z,6.70
2022-10-20T09:48:36.867Z,6.43
2022-10-20T09:51:06.976Z,6.80
2022-10-20T09:54:07.617Z,6.47
2022-10-20T09:56:40.248Z,6.93
2022-10-20T09:59:34.994Z,6.53
2022-10-20T10:02:39.333Z,6.47
2022-10-20T10:05:34.020Z,6.53
2022-10-20T10:08:06.418Z,5.95
2022-10-20T10:10:37.423Z,6.43
2022-10-20T10:13:32.618Z,7.03
2022-10-20T10:16:08.996Z,6.38
2022-10-20T10:18:55.630Z,6.93
2022-10-20T10:21:46.447Z,6.13
2022-10-20T10:24:40.841Z,6.47
2022-10-20T10:27:27.007Z,6.43
2022-10-20T10:29:56.276Z,6.53
2022-10-20T10:32:47.927Z,7.10
2022-10-20T10:37:45.969Z,6.55
2022-10-20T10:40:40.775Z,6.80
2022-10-20T10:43:18.033Z,6.50
2022-10-20T10:46:13.263Z,7.68
2022-10-20T10:48:52.213Z,7.07
2022-10-20T10:51:33.168Z,7.15
2022-10-20T10:54:22.023Z,6.75
2022-10-20T10:57:17.774Z,6.22
2022-10-20T10:59:48.945Z,7.38
2022-10-20T11:02:31.515Z,6.93
2022-10-20T11:05:38.419Z,7.68
2022-10-20T11:08:18.687Z,7.68
2022-10-20T11:11:13.721Z,6.75
2022-10-20T11:13:45.895Z,7.95
2022-10-20T11:16:33.570Z,7.93
2022-10-20T11:19:28.024Z,7.72
2022-10-20T11:25:32.520Z,7.80
2022-10-20T11:28:01.511Z,7.78
2022-10-20T11:30:30.240Z,7.97
2022-10-20T11:33:22.797Z,8.32
2022-10-20T11:36:02.203Z,7.78
2022-10-20T11:38:40.195Z,7.78
2022-10-20T11:41:43.131Z,7.20
2022-10-20T11:44:34.733Z,7.93
2022-10-20T11:47:08.292Z,8.75
2022-10-20T11:49:36.331Z,7.93
2022-10-20T11:52:26.094Z,8.23
2022-10-20T11:55:16.668Z,7.78
2022-10-20T11:57:48.741Z,8.00
2022-10-20T12:00:23.868Z,9.25
2022-10-20T12:02:59.889Z,8.63
2022-10-20T12:05:48.645Z,9.73
2022-10-20T12:08:49.550Z,8.93
2022-10-20T12:11:42.527Z,8.98
2022-10-20T12:14:43.111Z,9.20
2022-10-20T12:17:36.416Z,8.57
2022-10-20T12:20:25.634Z,8.60
2022-10-20T12:22:54.657Z,8.77
2022-10-20T12:25:30.491Z,8.82
2022-10-20T12:28:25.219Z,9.00
2022-10-20T12:31:08.524Z,8.93
2022-10-20T12:33:42.925Z,9.70
2022-10-20T12:36:17.345Z,9.43
2022-10-20T12:38:53.192Z,8.70
2022-10-20T12:41:43.467Z,9.48
2022-10-20T12:44:24.581Z,9.88
2022-10-20T12:47:04.445Z,9.70
2022-10-20T12:49:53.537Z,9.35
2022-10-20T12:52:29.642Z,9.02
2022-10-20T12:55:14.237Z,9.60
2022-10-20T12:57:43.864Z,9.48
2022-10-20T13:00:19.831Z,9.52
2022-10-20T13:02:49.499Z,9.25
2022-10-20T13:05:31.510Z,9.13
2022-10-20T13:08:17.575Z,9.05
2022-10-20T13:10:52.145Z,9.30
2022-10-20T13:13:21.089Z,9.40
2022-10-20T13:15:51.906Z,8.98
2022-10-20T13:18:21.758Z,9.02
2022-10-20T13:21:22.418Z,8.27
2022-10-20T13:27:10.653Z,9.45
2022-10-20T13:29:46.578Z,8.93
2022-10-20T13:32:54.035Z,9.50
2022-10-20T13:35:38.144Z,8.43
2022-10-20T13:38:29.851Z,8.93
2022-10-20T13:41:18.041Z,8.73
2022-10-20T13:44:12.131Z,8.30
2022-10-20T13:47:05.216Z,9.13
2022-10-20T13:50:00.337Z,8.25
2022-10-20T13:52:30.288Z,8.43
2022-10-20T13:55:01.153Z,8.88
2022-10-20T13:57:51.804Z,8.32
2022-10-20T14:00:34.306Z,8.27
2022-10-20T14:03:24.418Z,8.25
2022-10-20T14:05:56.129Z,7.75
2022-10-20T14:08:25.169Z,8.90
2022-10-20T14:11:08.147Z,8.23
2022-10-20T14:13:38.480Z,8.57
2022-10-20T14:16:08.270Z,8.77
2022-10-20T14:18:42.277Z,8.90
2022-10-20T14:21:29.967Z,8.32
2022-10-20T14:24:20.967Z,8.23
2022-10-20T14:27:07.560Z,8.65
2022-10-20T14:29:42.622Z,8.00
2022-10-20T14:32:17.469Z,7.40
2022-10-20T14:34:55.923Z,7.03
2022-10-20T14:37:57.942Z,9.18
2022-10-20T14:40:27.545Z,8.20
2022-10-20T14:43:02.153Z,7.45
2022-10-20T14:45:42.160Z,7.82
2022-10-20T14:48:22.589Z,7.88
2022-10-20T14:50:57.700Z,8.15
2022-10-20T14:53:34.369Z,8.73
2022-10-20T14:56:04.380Z,8.18
2022-10-20T14:59:02.643Z,8.15
2022-10-20T15:01:39.587Z,8.32
2022-10-20T15:04:28.556Z,8.43
2022-10-20T15:10:16.216Z,8.70
2022-10-20T15:15:52.150Z,7.93
2022-10-20T15:18:24.542Z,8.32
2022-10-20T15:21:04.616Z,8.68
2022-10-20T15:23:33.778Z,8.18
2022-10-20T15:26:17.915Z,8.18
2022-10-20T15:28:50.965Z,8.27
2022-10-20T15:31:24.093Z,8.23
2022-10-20T15:33:52.712Z,8.98
2022-10-20T15:36:33.310Z,8.38
2022-10-20T15:39:09.473Z,8.33
2022-10-20T15:41:59.947Z,8.48
2022-10-20T15:44:39.501Z,9.35
2022-10-20T15:47:11.297Z,9.32
2022-10-20T15:49:45.247Z,8.15
2022-10-20T15:52:15.253Z,9.30
2022-10-20T15:55:12.990Z,8.48
2022-10-20T15:57:42.801Z,8.70
2022-10-20T16:00:11.837Z,9.63
2022-10-20T16:02:41.654Z,11.40
2022-10-20T16:05:09.771Z,9.57
2022-10-20T16:07:51.951Z,9.45
2022-10-20T16:10:22.768Z,9.00
2022-10-20T16:13:06.285Z,8.57
2022-10-20T16:15:36.291Z,10.45
2022-10-20T16:18:09.691Z,9.60
2022-10-20T16:20:44.297Z,8.88
2022-10-20T16:23:15.138Z,9.75
2022-10-20T16:25:49.942Z,9.23
2022-10-20T16:28:19.952Z,9.38
2022-10-20T16:30:49.831Z,9.55
2022-10-20T16:33:19.594Z,11.80
2022-10-20T16:35:47.568Z,12.55
2022-10-20T16:38:17.462Z,19.50
2022-10-20T16:41:17.617Z,14.68
2022-10-20T16:43:47.349Z,11.55
2022-10-20T16:46:30.135Z,12.50
2022-10-20T16:48:58.487Z,13.85
2022-10-20T16:51:27.445Z,10.80
2022-10-20T16:53:57.364Z,11.77
2022-10-20T16:56:28.595Z,10.40
2022-10-20T16:59:04.691Z,10.70
2022-10-20T17:01:33.681Z,10.07
2022-10-20T17:04:25.421Z,11.10
2022-10-20T17:06:56.077Z,10.13
2022-10-20T17:09:31.132Z,9.48
2022-10-20T17:12:19.873Z,9.07
2022-10-20T17:14:55.284Z,9.05
2022-10-20T17:17:28.359Z,10.23
2022-10-20T17:19:57.102Z,9.45
2022-10-20T17:22:40.282Z,9.82
2022-10-20T17:25:35.066Z,10.10
2022-10-20T17:28:05.269Z,9.77
2022-10-20T17:30:33.193Z,9.93
2022-10-20T17:33:05.166Z,10.82
2022-10-20T17:35:40.664Z,11.57
2022-10-20T17:38:16.883Z,11.30
2022-10-20T17:40:56.294Z,10.77
2022-10-20T17:43:26.291Z,10.15
2022-10-20T17:46:23.116Z,10.35
2022-10-20T17:48:53.924Z,10.55
2022-10-20T17:51:23.805Z,10.85
2022-10-20T17:53:59.301Z,10.70
2022-10-20T17:56:39.273Z,11.18
2022-10-20T18:01:42.475Z,10.27
2022-10-20T18:04:16.232Z,10.07
2022-10-20T18:06:50.342Z,10.60
2022-10-20T18:09:20.566Z,10.60
2022-10-20T18:11:49.951Z,9.75
2022-10-20T18:14:18.177Z,10.65
2022-10-20T18:16:48.049Z,10.85
2022-10-20T18:19:20.569Z,9.05
2022-10-20T18:21:50.532Z,10.50
2022-10-20T18:24:30.390Z,9.93
2022-10-20T18:27:07.241Z,9.95
2022-10-20T18:29:47.329Z,9.32
2022-10-20T18:32:17.581Z,9.48
2022-10-20T18:34:55.773Z,9.98
2022-10-20T18:37:24.930Z,9.45
2022-10-20T18:40:09.226Z,9.48
2022-10-20T18:42:38.172Z,9.77
2022-10-20T18:45:21.341Z,9.70
2022-10-20T18:48:00.087Z,9.45
2022-10-20T18:50:38.148Z,9.50
2022-10-20T18:53:07.159Z,10.20
2022-10-20T18:55:39.829Z,10.20
2022-10-20T18:58:21.905Z,9.35
2022-10-20T19:01:04.886Z,9.07
2022-10-20T19:03:37.688Z,10.07
2022-10-20T19:06:12.317Z,9.38
2022-10-20T19:09:12.548Z,9.50
2022-10-20T19:11:41.070Z,9.55
2022-10-20T19:14:14.865Z,8.52
2022-10-20T19:16:54.650Z,8.40
2022-10-20T19:19:27.224Z,8.82
2022-10-20T19:21:55.717Z,9.82
2022-10-20T19:24:37.132Z,9.23
2022-10-20T19:27:25.546Z,7.90
2022-10-20T19:29:57.186Z,8.98
2022-10-20T19:32:43.599Z,8.43
2022-10-20T19:35:23.740Z,8.05
2022-10-20T19:37:52.912Z,8.30
2022-10-20T19:40:27.662Z,7.93
2022-10-20T19:42:57.313Z,8.85
2022-10-20T19:45:40.670Z,8.10
2022-10-20T19:48:10.367Z,7.88
2022-10-20T19:50:42.336Z,8.48
2022-10-20T19:53:27.521Z,8.15
2022-10-20T19:56:10.073Z,7.78
2022-10-20T19:58:42.783Z,8.27
2022-10-20T20:01:13.772Z,7.50
2022-10-20T20:03:48.787Z,7.63
2022-10-20T20:06:18.129Z,8.07
2022-10-20T20:08:52.007Z,8.57
2022-10-20T20:11:29.308Z,7.38
2022-10-20T20:14:10.143Z,7.35
2022-10-20T20:16:56.007Z,8.32
2022-10-20T20:19:26.841Z,9.93
2022-10-20T20:22:07.955Z,8.88
2022-10-20T20:24:36.995Z,9.10
2022-10-20T20:27:06.905Z,8.48
2022-10-20T20:29:37.252Z,8.25
2022-10-20T20:32:11.281Z,7.35
2022-10-20T20:34:57.685Z,8.30
2022-10-20T20:37:42.200Z,7.88
2022-10-20T20:40:10.319Z,7.57
2022-10-20T20:42:57.471Z,8.05
2022-10-20T20:45:44.394Z,7.60
2022-10-20T20:51:53.738Z,7.75
2022-10-20T20:54:27.191Z,8.90
2022-10-20T20:57:09.428Z,8.98
2022-10-20T21:00:14.629Z,8.13
2022-10-20T21:02:47.837Z,8.18
2022-10-20T21:05:23.197Z,8.25
2022-10-20T21:08:07.463Z,8.05
2022-10-20T21:10:46.374Z,8.57
2022-10-20T21:13:40.097Z,8.38
2022-10-20T21:16:36.009Z,7.95
2022-10-20T21:19:13.123Z,7.93
2022-10-20T21:22:02.804Z,8.20
2022-10-20T21:24:31.775Z,8.20
2022-10-20T21:27:11.848Z,8.00
2022-10-20T21:29:54.911Z,8.43
2022-10-20T21:32:26.067Z,8.25
2022-10-20T21:34:56.405Z,7.60
2022-10-20T21:37:32.081Z,7.80
2022-10-20T21:40:04.160Z,8.68
2022-10-20T21:42:44.256Z,8.88
2022-10-20T21:45:16.906Z,7.88
2022-10-20T21:47:47.963Z,7.80
2022-10-20T21:50:21.101Z,8.20
2022-10-20T21:52:52.998Z,8.40
2022-10-20T21:55:34.171Z,8.35
2022-10-20T21:58:07.900Z,9.15
2022-10-20T22:00:36.819Z,8.88
2022-10-20T22:03:05.467Z,9.15
2022-10-20T22:05:43.306Z,9.63
2022-10-20T22:08:13.943Z,9.23
2022-10-20T22:10:42.730Z,8.57
2022-10-20T22:13:25.898Z,7.95
2022-10-20T22:15:59.952Z,8.02
2022-10-20T22:18:32.872Z,7.10
2022-10-20T22:21:19.284Z,8.00
2022-10-20T22:23:59.726Z,9.07
2022-10-20T22:26:37.195Z,8.52
2022-10-20T22:29:12.873Z,8.48
2022-10-20T22:31:52.316Z,8.85
2022-10-20T22:34:22.103Z,8.95
2022-10-20T22:36:49.883Z,9.05
2022-10-20T22:39:25.911Z,8.80
2022-10-20T22:41:56.897Z,8.13
2022-10-20T22:44:30.615Z,7.68
2022-10-20T22:47:03.539Z,8.70
2022-10-20T22:49:41.552Z,9.25
2022-10-20T22:52:21.514Z,9.07
2022-10-20T22:55:00.943Z,8.82
2022-10-20T23:00:42.412Z,7.68
2022-10-20T23:03:24.573Z,8.45
2022-10-20T23:06:01.565Z,8.43
2022-10-20T23:08:31.969Z,8.38
2022-10-20T23:11:08.772Z,9.07
2022-10-20T23:13:45.659Z,8.52
2022-10-20T23:16:28.456Z,9.05
2022-10-20T23:18:56.433Z,9.02
2022-10-20T23:21:31.177Z,9.23
2022-10-20T23:23:59.041Z,11.00
2022-10-20T23:26:33.976Z,11.70
2022-10-20T23:32:20.061Z,12.02
2022-10-20T23:34:54.119Z,11.00
2022-10-20T23:37:32.126Z,10.82
2022-10-20T23:40:17.488Z,10.43
2022-10-20T23:42:48.559Z,11.23
2022-10-20T23:45:20.461Z,11.95
2022-10-20T23:47:57.825Z,11.45
2022-10-20T23:50:28.028Z,10.60
2022-10-20T23:53:12.209Z,10.73
2022-10-20T23:55:44.373Z,11.48
2022-10-20T23:58:12.743Z,11.85
